Friday, July 3, 2015, 8:16 AM EDT

KW99, Petersburg, Grant County Airport

Location: Petersburg, WV, United States Lat: 38.983
Local Time: 8:16 AM EDT (12:16 GMT) Lon: -79.133
Time Zone: US/Eastern Elev: 961 ft

Show me the last for .
Show Decoded

2015-07-03 07:55 METAR KW99 031155Z AUTO 00000KT 5SM BR CLR 16/14 A3000 RMK AO2 70003 T01550141
                 10155 20120 =
2015-07-03 07:35 METAR KW99 031135Z AUTO 00000KT 3SM BR CLR 14/13 A3000 RMK AO2 T01440131 =
2015-07-03 07:15 METAR KW99 031115Z AUTO 00000KT 4SM BR CLR 13/12 A3000 RMK AO2 T01330121 =
2015-07-03 06:55 METAR KW99 031055Z AUTO 00000KT 3SM BR CLR 13/12 A3000 RMK AO2 T01300118 =
2015-07-03 06:35 METAR KW99 031035Z AUTO 00000KT 2SM BR CLR 12/11 A3000 RMK AO2 T01240111 =
2015-07-03 05:55 METAR KW99 030955Z AUTO 00000KT 4SM BR SCT002 BKN080 13/12 A2999 RMK AO2
                 T01270115 =
2015-07-03 05:35 METAR KW99 030935Z AUTO 00000KT 3SM BR SCT002 OVC080 13/12 A2999 RMK AO2
                 T01310119 =
2015-07-03 05:15 METAR KW99 030915Z AUTO 00000KT 3SM BR BKN002 OVC080 13/12 A2999 RMK AO2
                 T01310120 =
2015-07-03 04:55 METAR KW99 030855Z AUTO 00000KT 3SM BR SCT001 OVC080 14/13 A2998 RMK AO2
                 T01370125 =
2015-07-03 04:35 METAR KW99 030835Z AUTO 00000KT 2 1/2SM BR BKN002 BKN080 14/13 A2998 RMK AO2
                 T01400127 =
2015-07-03 04:15 METAR KW99 030815Z AUTO 00000KT 4SM BR BKN002 14/13 A2998 RMK AO2 T01430130 =
2015-07-03 03:55 METAR KW99 030755Z AUTO 00000KT 4SM BR SCT002 SCT080 14/13 A2998 RMK AO2
                 T01430130 =
2015-07-03 03:35 METAR KW99 030735Z AUTO 00000KT 3SM BR SCT003 OVC085 15/13 A2998 RMK AO2
                 T01450132 =
2015-07-03 03:15 METAR KW99 030715Z AUTO 00000KT 3SM BR SCT003 BKN085 14/13 A2998 RMK AO2
                 T01390126 =
2015-07-03 02:55 METAR KW99 030655Z AUTO 00000KT 4SM BR CLR 14/12 A2997 RMK AO2 T01380124 =
2015-07-03 02:35 METAR KW99 030635Z AUTO 00000KT 3SM BR 14/12 A2998 RMK AO2 SKY OBSCURED
                 T01360123 =
2015-07-03 02:15 METAR KW99 030615Z AUTO 00000KT 2 1/2SM BR CLR 13/12 A2998 RMK AO2 T01330120 =
2015-07-03 01:55 METAR KW99 030555Z AUTO 00000KT 3SM BR CLR 13/11 A2998 RMK AO2 T01280114 10216
                 20127 402510127 =
2015-07-03 01:35 METAR KW99 030535Z AUTO 00000KT 3SM BR CLR 13/12 A2998 RMK AO2 T01340120 =
2015-07-03 01:15 METAR KW99 030515Z AUTO 00000KT 4SM BR CLR 13/12 A2998 RMK AO2 T01310116 =
2015-07-03 00:55 METAR KW99 030455Z AUTO 00000KT 3SM BR CLR 14/13 A2998 RMK AO2 T01410126 =
2015-07-03 00:35 METAR KW99 030435Z AUTO 00000KT 5SM BR CLR 15/13 A2998 RMK AO2 T01450130 =
2015-07-03 00:15 METAR KW99 030415Z AUTO 00000KT 5SM BR CLR 15/14 A2997 RMK AO2 T01540139 =
2015-07-02 23:15 METAR KW99 030315Z AUTO 00000KT 3SM BR CLR 16/15 A2997 RMK AO2 T01620146 =
2015-07-02 22:55 METAR KW99 030255Z AUTO 00000KT 7SM CLR 17/15 A2997 RMK AO2 T01650148 =
2015-07-02 22:15 METAR KW99 030215Z AUTO 00000KT 4SM BR CLR 17/15 A2996 RMK AO2 T01700150 =
2015-07-02 21:35 METAR KW99 030135Z AUTO 00000KT 7SM CLR 17/15 A2996 RMK AO2 T01740149 =
2015-07-02 21:15 METAR KW99 030115Z AUTO 00000KT 7SM CLR 17/15 A2995 RMK AO2 LTG DSNT SE
                 T01740151 =
2015-07-02 20:55 METAR KW99 030055Z AUTO 00000KT 7SM CLR 18/15 A2994 RMK AO2 T01810150 =
2015-07-02 20:35 METAR KW99 030035Z AUTO 28003KT 10SM CLR 19/15 A2994 RMK AO2 T01880151 =
2015-07-02 20:15 METAR KW99 030015Z AUTO 30004KT 10SM CLR 20/15 A2993 RMK AO2 T01960154 =
2015-07-02 19:55 METAR KW99 022355Z AUTO 00000KT 10SM CLR 22/16 A2993 RMK AO2 T02180163 10251
                 20218 =
2015-07-02 19:35 METAR KW99 022335Z AUTO 00000KT 10SM CLR 23/15 A2992 RMK AO2 T02340150 =
2015-07-02 19:15 METAR KW99 022315Z AUTO 00000KT 10SM CLR 24/14 A2992 RMK AO2 T02400139 =
2015-07-02 18:55 METAR KW99 022255Z AUTO 31003KT 10SM CLR 25/13 A2992 RMK AO2 T02450134 =
2015-07-02 18:35 METAR KW99 022235Z AUTO 00000KT 10SM CLR 25/14 A2991 RMK AO2 T02500140 =
2015-07-02 18:15 METAR KW99 022215Z AUTO 00000KT 10SM CLR 25/14 A2991 RMK AO2 T02480141 =
2015-07-02 17:55 METAR KW99 022155Z AUTO 00000KT 10SM CLR 24/16 A2992 RMK AO2 T02380158 =
2015-07-02 17:35 METAR KW99 022135Z AUTO 00000KT 10SM CLR 24/17 A2992 RMK AO2 T02350170 =
2015-07-02 17:15 METAR KW99 022115Z AUTO 00000KT 10SM CLR 24/15 A2993 RMK AO2 T02410151 =
2015-07-02 16:55 METAR KW99 022055Z AUTO 00000KT 10SM CLR 24/15 A2992 RMK AO2 T02400154 =
2015-07-02 16:35 METAR KW99 022035Z AUTO 00000KT 10SM CLR 24/15 A2993 RMK AO2 T02410154 =
2015-07-02 16:15 METAR KW99 022015Z AUTO 00000KT 10SM CLR 24/15 A2993 RMK AO2 T02420151 =
2015-07-02 15:55 METAR KW99 021955Z AUTO 00000KT 10SM CLR 24/15 RMK AO2 T02410152 =
2015-07-02 15:35 METAR KW99 021935Z AUTO 14003KT 10SM SCT075 24/15 A2994 RMK AO2 T02420151 =
2015-07-02 15:15 METAR KW99 021915Z AUTO 00000KT 10SM SCT075 24/15 A2994 RMK AO2 T02420154 =
2015-07-02 14:55 METAR KW99 021855Z AUTO 00000KT 10SM CLR 24/15 A2994 RMK AO2 T02410151 =
2015-07-02 13:15 METAR KW99 021715Z AUTO 12004KT 10SM CLR 23/16 A2994 RMK AO2 T02300164 =
2015-07-02 12:35 METAR KW99 021635Z AUTO 08003KT 10SM SCT011 SCT100 22/17 A2995 RMK AO2 T02230172
                 =

Support USWX by starting your Amazon purchase here.